Elsmore, KS

7:27 PM CDT on September 19, 2014 (GMT -0500)
Casa Bravo | Change Station
CLOSE
Current Station
Personal Weather Station
Location: Chanute, KS
Elevation: 998 ft
Nearby Weather Stations

Elev 998 ft 37.67 °N, 95.47 °W | Updated 4 minutes ago

Mostly Cloudy
Mostly Cloudy
71.0 °F
Feels Like 71.0 °F
N
2.2
Wind Variable Wind from SE

Today
High -- | Low -- °F
--% Chance of Precip.
Yesterday
High -- | Low -- °F
Precip. -- in
7:05 AM 7:22 PM
Waning Crescent, 16% visible
Pressure 29.95 in
Visibility 6.0 miles
Clouds Scattered Clouds 1500 ft
Overcast 2200 ft
Dew Point 66 °F
Humidity 85%
Rainfall 0.00 in
Snow Depth Not available.
UV 0 out of 12
Pollen 6.00 out of 12
Air Quality Not available.
Flu Activity Not available.
METAR KCNU 192352Z AUTO 16007KT 6SM HZ SCT015 OVC022 23/21 A2997 RMK AO2 SLP142 T02330206 10244 20217 57004

More Conditions Fewer Conditions

Pressure 29.95 in
Visibility 6.0 miles
Clouds Scattered Clouds 1500 ft
Overcast 2200 ft
Dew Point 66 °F
Humidity 85%
Rainfall 0.00 in
Snow Depth Not available.
UV 0 out of 12
Pollen 6.00 out of 12
Air Quality Not available.
Flu Activity Not available.
METAR KCNU 192352Z AUTO 16007KT 6SM HZ SCT015 OVC022 23/21 A2997 RMK AO2 SLP142 T02330206 10244 20217 57004

More Conditions Fewer Conditions

10-Day Weather Forecast

Almanac

Astronomy

Sep. 19, 2014 Rise Set
Actual Time 7:05 AM CDT 7:22 PM CDT
Civil Twilight 6:39 AM CDT 7:48 PM CDT
Nautical Twilight 6:08 AM CDT 8:19 PM CDT
Astronomical Twilight 5:37 AM CDT 8:50 PM CDT
Moon 2:55 AM CDT (9/19) 4:48 PM CDT (9/19)
Length of Visible Light 13h 08m
Length of Day
12h 16m
Tomorrow will be 2m 25s shorter.
Waning Crescent, 16% of the Moon is Illuminated
Today
Waning Crescent
Sep 24
New
Oct 1
First Quarter
Oct 8
Full
Oct 15
Last Quarter

Today's Extremes

State Highs State Lows

Community

WunderPhotos

Upload Photos

1,754,744 photos uploaded!

WunderBlogs® & News

Nearby

Snow Depth

Station Depth Elevation
No new snow has been reported.

Earthquake Activity

City Distance Mag. Time & Date
Yale, Oklahoma 147 miles 3.3 7:02 AM CDT
2014-09-17
Yale, Oklahoma 146 miles 3.0 6:58 AM CDT
2014-09-17
Minimum magnitude displayed is 2.5.

Coastal Water Temperatures

Place Temperature
No Stations Reporting

Nearby Weather Stations